sensor_id;sensor_type;location;lat;lon;timestamp;pressure;altitude;pressure_sealevel;temperature;humidity
65173;BME280;51758;52.218;5.172;2023-03-21T00:00:35;98388.34;;;9.00;100.00
65173;BME280;51758;52.218;5.172;2023-03-21T00:03:03;98392.09;;;8.92;100.00
65173;BME280;51758;52.218;5.172;2023-03-21T00:05:33;98389.72;;;8.91;100.00
65173;BME280;51758;52.218;5.172;2023-03-21T00:08:01;98375.13;;;8.90;100.00
65173;BME280;51758;52.218;5.172;2023-03-21T00:10:28;98383.06;;;8.83;100.00
65173;BME280;51758;52.218;5.172;2023-03-21T00:13:09;98373.22;;;8.85;100.00
65173;BME280;51758;52.218;5.172;2023-03-21T00:15:39;98370.94;;;8.89;100.00
65173;BME280;51758;52.218;5.172;2023-03-21T00:18:29;98361.91;;;8.91;100.00
65173;BME280;51758;52.218;5.172;2023-03-21T00:21:00;98355.81;;;8.97;100.00
65173;BME280;51758;52.218;5.172;2023-03-21T00:23:50;98337.91;;;8.89;100.00
65173;BME280;51758;52.218;5.172;2023-03-21T00:26:18;98352.97;;;8.99;100.00
65173;BME280;51758;52.218;5.172;2023-03-21T00:28:48;98347.09;;;8.92;100.00
65173;BME280;51758;52.218;5.172;2023-03-21T00:31:16;98353.06;;;8.92;100.00
65173;BME280;51758;52.218;5.172;2023-03-21T00:33:44;98351.03;;;8.94;100.00
65173;BME280;51758;52.218;5.172;2023-03-21T00:36:13;98351.03;;;8.94;100.00
65173;BME280;51758;52.218;5.172;2023-03-21T00:38:42;98347.09;;;8.92;100.00
65173;BME280;51758;52.218;5.172;2023-03-21T00:41:11;98353.53;;;8.89;100.00
65173;BME280;51758;52.218;5.172;2023-03-21T00:44:00;98346.72;;;8.88;100.00
65173;BME280;51758;52.218;5.172;2023-03-21T00:46:27;98328.63;;;8.93;100.00
65173;BME280;51758;52.218;5.172;2023-03-21T00:49:10;98335.53;;;8.88;100.00
65173;BME280;51758;52.218;5.172;2023-03-21T00:51:41;98333.41;;;8.73;100.00
65173;BME280;51758;52.218;5.172;2023-03-21T00:54:11;98308.28;;;8.90;100.00
65173;BME280;51758;52.218;5.172;2023-03-21T00:56:38;98313.25;;;8.92;100.00
65173;BME280;51758;52.218;5.172;2023-03-21T00:59:06;98313.38;;;8.85;100.00
65173;BME280;51758;52.218;5.172;2023-03-21T01:01:34;98315.06;;;8.80;100.00
65173;BME280;51758;52.218;5.172;2023-03-21T01:04:02;98307.63;;;8.83;100.00
65173;BME280;51758;52.218;5.172;2023-03-21T01:06:31;98294.38;;;8.85;100.00
65173;BME280;51758;52.218;5.172;2023-03-21T01:09:00;98303.66;;;8.81;100.00
65173;BME280;51758;52.218;5.172;2023-03-21T01:11:28;98301.72;;;8.76;100.00
65173;BME280;51758;52.218;5.172;2023-03-21T01:13:56;98281.38;;;8.73;100.00
65173;BME280;51758;52.218;5.172;2023-03-21T01:16:44;98286.34;;;8.86;100.00
65173;BME280;51758;52.218;5.172;2023-03-21T01:19:14;98286.13;;;8.76;100.00
65173;BME280;51758;52.218;5.172;2023-03-21T01:21:51;98275.38;;;8.84;100.00
65173;BME280;51758;52.218;5.172;2023-03-21T01:24:21;98274.47;;;8.79;100.00
65173;BME280;51758;52.218;5.172;2023-03-21T01:26:49;98271.06;;;8.78;100.00
65173;BME280;51758;52.218;5.172;2023-03-21T01:29:16;98260.00;;;8.83;100.00
65173;BME280;51758;52.218;5.172;2023-03-21T01:31:44;98264.06;;;8.79;100.00
65173;BME280;51758;52.218;5.172;2023-03-21T01:34:12;98260.88;;;8.77;100.00
65173;BME280;51758;52.218;5.172;2023-03-21T01:36:40;98259.78;;;8.73;100.00
65173;BME280;51758;52.218;5.172;2023-03-21T01:39:07;98255.91;;;8.75;100.00
65173;BME280;51758;52.218;5.172;2023-03-21T01:41:39;98258.19;;;8.72;100.00
65173;BME280;51758;52.218;5.172;2023-03-21T01:44:13;98259.53;;;8.74;100.00
65173;BME280;51758;52.218;5.172;2023-03-21T01:46:42;98249.13;;;8.74;100.00
65173;BME280;51758;52.218;5.172;2023-03-21T01:49:27;98211.00;;;8.80;100.00
65173;BME280;51758;52.218;5.172;2023-03-21T01:52:02;98219.59;;;8.80;100.00
65173;BME280;51758;52.218;5.172;2023-03-21T01:54:40;98223.22;;;8.79;100.00
65173;BME280;51758;52.218;5.172;2023-03-21T01:57:15;98205.59;;;8.81;100.00
65173;BME280;51758;52.218;5.172;2023-03-21T01:59:45;98225.41;;;8.71;100.00
65173;BME280;51758;52.218;5.172;2023-03-21T02:02:18;98222.88;;;8.76;100.00
65173;BME280;51758;52.218;5.172;2023-03-21T02:04:49;98219.59;;;8.80;100.00
65173;BME280;51758;52.218;5.172;2023-03-21T02:07:25;98220.63;;;8.79;100.00
65173;BME280;51758;52.218;5.172;2023-03-21T02:09:55;98216.44;;;8.78;100.00
65173;BME280;51758;52.218;5.172;2023-03-21T02:12:26;98208.88;;;8.77;100.00
65173;BME280;51758;52.218;5.172;2023-03-21T02:14:54;98216.34;;;8.73;100.00
65173;BME280;51758;52.218;5.172;2023-03-21T02:17:27;98213.75;;;8.73;100.00
65173;BME280;51758;52.218;5.172;2023-03-21T02:26:42;98171.56;;;8.71;100.00
65173;BME280;51758;52.218;5.172;2023-03-21T02:30:00;98170.78;;;8.71;100.00
65173;BME280;51758;52.218;5.172;2023-03-21T02:32:42;98184.56;;;8.71;100.00
65173;BME280;51758;52.218;5.172;2023-03-21T02:35:24;98177.97;;;8.80;100.00
65173;BME280;51758;52.218;5.172;2023-03-21T02:38:07;98171.19;;;8.79;100.00
65173;BME280;51758;52.218;5.172;2023-03-21T02:40:39;98197.81;;;8.70;100.00
65173;BME280;51758;52.218;5.172;2023-03-21T02:43:12;98176.06;;;8.76;100.00
65173;BME280;51758;52.218;5.172;2023-03-21T02:45:52;98166.81;;;8.68;100.00
65173;BME280;51758;52.218;5.172;2023-03-21T02:48:23;98171.53;;;8.83;100.00
65173;BME280;51758;52.218;5.172;2023-03-21T02:51:12;98173.16;;;8.72;100.00
65173;BME280;51758;52.218;5.172;2023-03-21T02:53:48;98182.44;;;8.68;100.00
65173;BME280;51758;52.218;5.172;2023-03-21T02:56:38;98167.28;;;8.65;100.00
65173;BME280;51758;52.218;5.172;2023-03-21T02:59:07;98176.53;;;8.73;100.00
65173;BME280;51758;52.218;5.172;2023-03-21T03:01:35;98177.78;;;8.70;100.00
65173;BME280;51758;52.218;5.172;2023-03-21T03:04:03;98183.56;;;8.72;100.00
65173;BME280;51758;52.218;5.172;2023-03-21T03:06:37;98160.41;;;8.59;100.00
65173;BME280;51758;52.218;5.172;2023-03-21T03:09:23;98172.38;;;8.60;100.00
65173;BME280;51758;52.218;5.172;2023-03-21T03:11:59;98162.78;;;8.60;100.00
65173;BME280;51758;52.218;5.172;2023-03-21T03:14:43;98143.31;;;8.63;100.00
65173;BME280;51758;52.218;5.172;2023-03-21T03:17:38;98134.84;;;8.56;100.00
65173;BME280;51758;52.218;5.172;2023-03-21T03:20:14;98131.00;;;8.58;100.00
65173;BME280;51758;52.218;5.172;2023-03-21T03:22:51;98131.00;;;8.58;100.00
65173;BME280;51758;52.218;5.172;2023-03-21T03:25:27;98126.59;;;8.59;100.00
65173;BME280;51758;52.218;5.172;2023-03-21T03:28:08;98121.06;;;8.55;100.00
65173;BME280;51758;52.218;5.172;2023-03-21T03:30:39;98124.44;;;8.56;100.00
65173;BME280;51758;52.218;5.172;2023-03-21T03:33:19;98117.66;;;8.55;100.00
65173;BME280;51758;52.218;5.172;2023-03-21T03:35:49;98114.66;;;8.46;100.00
65173;BME280;51758;52.218;5.172;2023-03-21T03:38:31;98110.66;;;8.55;100.00
65173;BME280;51758;52.218;5.172;2023-03-21T03:41:07;98105.22;;;8.57;100.00
65173;BME280;51758;52.218;5.172;2023-03-21T03:43:39;98095.63;;;8.57;100.00
65173;BME280;51758;52.218;5.172;2023-03-21T03:46:12;98094.41;;;8.48;100.00
65173;BME280;51758;52.218;5.172;2023-03-21T03:48:44;98088.16;;;8.49;100.00
65173;BME280;51758;52.218;5.172;2023-03-21T03:51:16;98080.13;;;8.51;100.00
65173;BME280;51758;52.218;5.172;2023-03-21T03:53:51;98075.84;;;8.56;100.00
65173;BME280;51758;52.218;5.172;2023-03-21T03:56:22;98081.59;;;8.58;100.00
65173;BME280;51758;52.218;5.172;2023-03-21T03:58:51;98075.28;;;8.54;100.00
65173;BME280;51758;52.218;5.172;2023-03-21T04:01:18;98079.03;;;8.47;100.00
65173;BME280;51758;52.218;5.172;2023-03-21T04:03:47;98070.22;;;8.48;100.00
65173;BME280;51758;52.218;5.172;2023-03-21T04:06:26;98076.06;;;8.55;100.00
65173;BME280;51758;52.218;5.172;2023-03-21T04:08:54;98058.25;;;8.47;100.00
65173;BME280;51758;52.218;5.172;2023-03-21T04:11:24;98076.97;;;8.49;100.00
65173;BME280;51758;52.218;5.172;2023-03-21T04:13:52;98068.31;;;8.43;100.00
65173;BME280;51758;52.218;5.172;2023-03-21T04:16:20;98063.28;;;8.53;100.00
65173;BME280;51758;52.218;5.172;2023-03-21T04:18:48;98058.25;;;8.47;100.00
65173;BME280;51758;52.218;5.172;2023-03-21T04:21:18;98076.22;;;8.48;100.00
65173;BME280;51758;52.218;5.172;2023-03-21T04:23:46;98071.31;;;8.52;100.00
65173;BME280;51758;52.218;5.172;2023-03-21T04:26:14;97804.59;;;8.56;100.00
65173;BME280;51758;52.218;5.172;2023-03-21T04:28:44;97889.63;;;8.55;100.00
65173;BME280;51758;52.218;5.172;2023-03-21T04:31:11;97939.81;;;8.56;100.00
65173;BME280;51758;52.218;5.172;2023-03-21T04:33:51;97935.88;;;8.25;100.00
65173;BME280;51758;52.218;5.172;2023-03-21T04:36:19;97999.75;;;8.49;100.00
65173;BME280;51758;52.218;5.172;2023-03-21T04:38:53;98012.53;;;8.51;100.00
65173;BME280;51758;52.218;5.172;2023-03-21T04:41:22;98017.16;;;8.49;100.00
65173;BME280;51758;52.218;5.172;2023-03-21T04:43:51;98035.63;;;8.47;100.00
65173;BME280;51758;52.218;5.172;2023-03-21T04:46:19;98029.94;;;8.50;100.00
65173;BME280;51758;52.218;5.172;2023-03-21T04:48:47;98044.44;;;8.46;100.00
65173;BME280;51758;52.218;5.172;2023-03-21T04:51:15;98048.94;;;8.51;100.00
65173;BME280;51758;52.218;5.172;2023-03-21T04:53:43;98056.16;;;8.49;100.00
65173;BME280;51758;52.218;5.172;2023-03-21T04:56:12;98057.28;;;8.53;100.00
65173;BME280;51758;52.218;5.172;2023-03-21T04:58:40;98054.94;;;8.51;100.00
65173;BME280;51758;52.218;5.172;2023-03-21T05:01:09;98052.81;;;8.48;100.00
65173;BME280;51758;52.218;5.172;2023-03-21T05:03:45;98069.88;;;8.44;100.00
65173;BME280;51758;52.218;5.172;2023-03-21T05:06:13;98076.22;;;8.48;100.00
65173;BME280;51758;52.218;5.172;2023-03-21T05:08:41;98065.66;;;8.55;100.00
65173;BME280;51758;52.218;5.172;2023-03-21T05:11:09;98075.94;;;8.50;100.00
65173;BME280;51758;52.218;5.172;2023-03-21T05:13:37;98077.19;;;8.59;100.00
65173;BME280;51758;52.218;5.172;2023-03-21T05:16:05;98088.50;;;8.53;100.00
65173;BME280;51758;52.218;5.172;2023-03-21T05:18:35;98089.66;;;8.45;100.00
65173;BME280;51758;52.218;5.172;2023-03-21T05:21:04;98091.59;;;8.38;100.00
65173;BME280;51758;52.218;5.172;2023-03-21T05:23:33;98095.09;;;8.44;100.00
65173;BME280;51758;52.218;5.172;2023-03-21T05:26:08;98097.56;;;8.39;100.00
65173;BME280;51758;52.218;5.172;2023-03-21T05:28:36;98071.53;;;8.10;100.00
65173;BME280;51758;52.218;5.172;2023-03-21T05:31:06;98098.72;;;8.43;100.00
65173;BME280;51758;52.218;5.172;2023-03-21T05:33:35;98113.97;;;8.39;100.00
65173;BME280;51758;52.218;5.172;2023-03-21T05:36:03;98109.22;;;8.36;100.00
65173;BME280;51758;52.218;5.172;2023-03-21T05:38:31;98109.94;;;8.32;100.00
65173;BME280;51758;52.218;5.172;2023-03-21T05:40:59;98119.16;;;8.27;100.00
65173;BME280;51758;52.218;5.172;2023-03-21T05:43:27;98111.38;;;8.27;100.00
65173;BME280;51758;52.218;5.172;2023-03-21T05:45:55;98108.53;;;8.29;100.00
65173;BME280;51758;52.218;5.172;2023-03-21T05:48:23;98114.19;;;8.26;100.00
65173;BME280;51758;52.218;5.172;2023-03-21T05:50:53;98112.16;;;8.28;100.00
65173;BME280;51758;52.218;5.172;2023-03-21T05:53:21;98106.16;;;8.27;100.00
65173;BME280;51758;52.218;5.172;2023-03-21T05:55:49;98106.50;;;8.31;100.00
65173;BME280;51758;52.218;5.172;2023-03-21T05:58:16;98101.69;;;8.35;100.00
65173;BME280;51758;52.218;5.172;2023-03-21T06:00:44;98106.16;;;8.27;100.00
65173;BME280;51758;52.218;5.172;2023-03-21T06:03:12;98117.00;;;8.24;100.00
65173;BME280;51758;52.218;5.172;2023-03-21T06:05:40;98115.22;;;8.37;100.00
65173;BME280;51758;52.218;5.172;2023-03-21T06:08:09;98118.72;;;8.31;100.00
65173;BME280;51758;52.218;5.172;2023-03-21T06:10:36;98113.66;;;8.36;100.00
65173;BME280;51758;52.218;5.172;2023-03-21T06:13:04;98114.75;;;8.40;100.00
65173;BME280;51758;52.218;5.172;2023-03-21T06:15:32;98111.81;;;8.36;100.00
65173;BME280;51758;52.218;5.172;2023-03-21T06:18:00;98124.38;;;8.39;100.00
65173;BME280;51758;52.218;5.172;2023-03-21T06:20:28;98121.66;;;8.46;100.00
65173;BME280;51758;52.218;5.172;2023-03-21T06:22:56;98123.13;;;8.42;100.00
65173;BME280;51758;52.218;5.172;2023-03-21T06:25:26;98129.91;;;8.43;100.00
65173;BME280;51758;52.218;5.172;2023-03-21T06:27:53;98136.00;;;8.37;100.00
65173;BME280;51758;52.218;5.172;2023-03-21T06:30:21;98132.97;;;8.40;100.00
65173;BME280;51758;52.218;5.172;2023-03-21T06:32:49;98143.28;;;8.35;100.00
65173;BME280;51758;52.218;5.172;2023-03-21T06:35:17;98150.38;;;8.39;100.00
65173;BME280;51758;52.218;5.172;2023-03-21T06:37:45;98151.84;;;8.47;100.00
65173;BME280;51758;52.218;5.172;2023-03-21T06:40:15;98150.34;;;8.51;100.00
65173;BME280;51758;52.218;5.172;2023-03-21T06:42:44;98161.22;;;8.48;100.00
65173;BME280;51758;52.218;5.172;2023-03-21T06:45:12;98162.88;;;8.54;100.00
65173;BME280;51758;52.218;5.172;2023-03-21T06:47:40;98170.13;;;8.52;100.00
65173;BME280;51758;52.218;5.172;2023-03-21T06:50:09;98179.97;;;8.50;100.00
65173;BME280;51758;52.218;5.172;2023-03-21T06:52:36;98179.72;;;8.51;100.00
65173;BME280;51758;52.218;5.172;2023-03-21T06:55:05;98190.94;;;8.52;100.00
65173;BME280;51758;52.218;5.172;2023-03-21T06:57:33;98194.88;;;8.54;100.00
65173;BME280;51758;52.218;5.172;2023-03-21T07:00:03;98200.75;;;8.50;100.00
65173;BME280;51758;52.218;5.172;2023-03-21T07:02:33;98174.66;;;8.21;100.00
65173;BME280;51758;52.218;5.172;2023-03-21T07:05:01;98223.50;;;8.43;100.00
65173;BME280;51758;52.218;5.172;2023-03-21T07:07:30;98225.53;;;8.52;100.00
65173;BME280;51758;52.218;5.172;2023-03-21T07:09:57;98231.53;;;8.53;100.00
65173;BME280;51758;52.218;5.172;2023-03-21T07:12:25;98245.31;;;8.53;100.00
65173;BME280;51758;52.218;5.172;2023-03-21T07:14:53;98249.28;;;8.56;100.00
65173;BME280;51758;52.218;5.172;2023-03-21T07:17:22;98256.06;;;8.57;100.00
65173;BME280;51758;52.218;5.172;2023-03-21T07:19:50;98259.22;;;8.59;100.00
65173;BME280;51758;52.218;5.172;2023-03-21T07:22:18;98239.88;;;8.55;100.00
65173;BME280;51758;52.218;5.172;2023-03-21T07:24:46;98252.44;;;8.70;100.00
65173;BME280;51758;52.218;5.172;2023-03-21T07:27:29;98259.09;;;8.77;100.00
65173;BME280;51758;52.218;5.172;2023-03-21T07:29:57;98277.06;;;8.67;100.00
65173;BME280;51758;52.218;5.172;2023-03-21T07:32:26;98283.66;;;8.70;100.00
65173;BME280;51758;52.218;5.172;2023-03-21T07:34:55;98294.28;;;8.68;100.00
65173;BME280;51758;52.218;5.172;2023-03-21T07:37:24;98296.19;;;8.73;100.00
65173;BME280;51758;52.218;5.172;2023-03-21T07:39:52;98283.72;;;8.75;100.00
65173;BME280;51758;52.218;5.172;2023-03-21T07:42:20;98304.69;;;8.68;100.00
65173;BME280;51758;52.218;5.172;2023-03-21T07:44:47;98293.81;;;8.71;100.00
65173;BME280;51758;52.218;5.172;2023-03-21T07:47:16;98295.72;;;8.76;100.00
65173;BME280;51758;52.218;5.172;2023-03-21T07:49:45;98300.13;;;8.75;100.00
65173;BME280;51758;52.218;5.172;2023-03-21T07:52:12;98310.22;;;8.72;100.00
65173;BME280;51758;52.218;5.172;2023-03-21T07:54:41;98324.03;;;8.72;100.00
65173;BME280;51758;52.218;5.172;2023-03-21T07:57:08;98324.91;;;8.78;100.00
65173;BME280;51758;52.218;5.172;2023-03-21T07:59:39;98311.69;;;8.68;100.00
65173;BME280;51758;52.218;5.172;2023-03-21T08:02:09;98337.34;;;8.76;100.00
65173;BME280;51758;52.218;5.172;2023-03-21T08:04:37;98335.78;;;8.86;100.00
65173;BME280;51758;52.218;5.172;2023-03-21T08:07:07;98347.22;;;8.85;100.00
65173;BME280;51758;52.218;5.172;2023-03-21T08:09:35;98351.41;;;8.86;100.00
65173;BME280;51758;52.218;5.172;2023-03-21T08:12:04;98362.91;;;8.79;100.00
65173;BME280;51758;52.218;5.172;2023-03-21T08:14:34;98372.31;;;8.91;100.00
65173;BME280;51758;52.218;5.172;2023-03-21T08:17:02;98363.47;;;8.92;100.00
65173;BME280;51758;52.218;5.172;2023-03-21T08:19:30;98363.38;;;8.99;100.00
65173;BME280;51758;52.218;5.172;2023-03-21T08:21:58;98362.47;;;8.93;100.00
65173;BME280;51758;52.218;5.172;2023-03-21T08:24:28;98353.66;;;8.94;100.00
65173;BME280;51758;52.218;5.172;2023-03-21T08:26:56;98360.06;;;9.04;100.00
65173;BME280;51758;52.218;5.172;2023-03-21T08:29:24;98364.72;;;9.02;100.00
65173;BME280;51758;52.218;5.172;2023-03-21T08:31:52;98358.03;;;9.06;100.00
65173;BME280;51758;52.218;5.172;2023-03-21T08:34:20;98359.41;;;9.08;100.00
65173;BME280;51758;52.218;5.172;2023-03-21T08:36:48;98356.00;;;9.08;100.00
65173;BME280;51758;52.218;5.172;2023-03-21T08:39:16;98364.47;;;9.15;100.00
65173;BME280;51758;52.218;5.172;2023-03-21T08:41:45;98360.50;;;9.12;100.00
65173;BME280;51758;52.218;5.172;2023-03-21T08:44:13;98317.44;;;8.93;100.00
65173;BME280;51758;52.218;5.172;2023-03-21T08:46:42;98367.88;;;9.04;100.00
65173;BME280;51758;52.218;5.172;2023-03-21T08:49:10;98363.91;;;9.13;100.00
65173;BME280;51758;52.218;5.172;2023-03-21T08:51:37;98358.25;;;9.16;100.00
65173;BME280;51758;52.218;5.172;2023-03-21T08:54:06;98358.03;;;9.17;100.00
65173;BME280;51758;52.218;5.172;2023-03-21T08:56:34;98365.72;;;9.12;100.00
65173;BME280;51758;52.218;5.172;2023-03-21T08:59:04;98360.84;;;9.27;100.00
65173;BME280;51758;52.218;5.172;2023-03-21T09:01:31;98351.13;;;9.23;100.00
65173;BME280;51758;52.218;5.172;2023-03-21T09:03:59;98384.59;;;9.31;100.00
65173;BME280;51758;52.218;5.172;2023-03-21T09:06:27;98392.84;;;9.40;100.00
65173;BME280;51758;52.218;5.172;2023-03-21T09:08:55;98411.00;;;9.34;100.00
65173;BME280;51758;52.218;5.172;2023-03-21T09:11:23;98423.78;;;9.36;100.00
65173;BME280;51758;52.218;5.172;2023-03-21T09:13:50;98438.25;;;9.44;100.00
65173;BME280;51758;52.218;5.172;2023-03-21T09:16:20;98445.94;;;9.50;100.00
65173;BME280;51758;52.218;5.172;2023-03-21T09:18:48;98452.50;;;9.64;100.00
65173;BME280;51758;52.218;5.172;2023-03-21T09:21:21;98474.47;;;9.68;100.00
65173;BME280;51758;52.218;5.172;2023-03-21T09:23:51;98497.56;;;9.65;100.00
65173;BME280;51758;52.218;5.172;2023-03-21T09:26:22;98520.56;;;9.68;100.00
65173;BME280;51758;52.218;5.172;2023-03-21T09:28:50;98544.81;;;9.68;100.00
65173;BME280;51758;52.218;5.172;2023-03-21T09:31:20;98563.50;;;9.65;100.00
65173;BME280;51758;52.218;5.172;2023-03-21T09:33:51;98595.09;;;9.69;100.00
65173;BME280;51758;52.218;5.172;2023-03-21T09:36:19;98617.19;;;9.78;100.00
65173;BME280;51758;52.218;5.172;2023-03-21T09:38:50;98635.34;;;9.85;100.00
65173;BME280;51758;52.218;5.172;2023-03-21T09:41:32;98654.38;;;9.85;100.00
65173;BME280;51758;52.218;5.172;2023-03-21T09:44:11;98683.84;;;10.09;100.00
65173;BME280;51758;52.218;5.172;2023-03-21T09:46:45;98724.84;;;10.02;100.00
65173;BME280;51758;52.218;5.172;2023-03-21T09:49:17;98756.38;;;10.00;100.00
65173;BME280;51758;52.218;5.172;2023-03-21T09:51:48;98781.09;;;10.10;100.00
65173;BME280;51758;52.218;5.172;2023-03-21T09:54:21;98804.88;;;10.01;100.00
65173;BME280;51758;52.218;5.172;2023-03-21T09:56:52;98820.88;;;10.05;100.00
65173;BME280;51758;52.218;5.172;2023-03-21T09:59:25;98847.66;;;10.12;100.00
65173;BME280;51758;52.218;5.172;2023-03-21T10:01:58;98874.53;;;10.13;100.00
65173;BME280;51758;52.218;5.172;2023-03-21T10:04:27;98879.84;;;10.18;100.00
65173;BME280;51758;52.218;5.172;2023-03-21T10:06:57;98885.34;;;10.28;100.00
65173;BME280;51758;52.218;5.172;2023-03-21T10:09:28;98907.16;;;10.33;100.00
65173;BME280;51758;52.218;5.172;2023-03-21T10:12:01;98923.63;;;10.46;100.00
65173;BME280;51758;52.218;5.172;2023-03-21T10:14:32;98950.16;;;10.43;100.00
65173;BME280;51758;52.218;5.172;2023-03-21T10:17:09;98959.31;;;10.63;100.00
65173;BME280;51758;52.218;5.172;2023-03-21T10:19:45;98979.56;;;10.50;100.00
65173;BME280;51758;52.218;5.172;2023-03-21T10:22:13;99002.13;;;10.44;100.00
65173;BME280;51758;52.218;5.172;2023-03-21T10:24:41;99024.78;;;10.44;100.00
65173;BME280;51758;52.218;5.172;2023-03-21T10:27:09;99048.44;;;10.49;100.00
65173;BME280;51758;52.218;5.172;2023-03-21T10:29:41;99043.38;;;10.65;100.00
65173;BME280;51758;52.218;5.172;2023-03-21T10:32:14;99056.22;;;10.78;100.00
65173;BME280;51758;52.218;5.172;2023-03-21T10:34:45;99046.13;;;10.70;100.00
65173;BME280;51758;52.218;5.172;2023-03-21T10:37:14;99072.72;;;10.91;100.00
65173;BME280;51758;52.218;5.172;2023-03-21T10:39:44;99075.13;;;10.92;100.00
65173;BME280;51758;52.218;5.172;2023-03-21T10:42:17;99069.72;;;11.05;100.00
65173;BME280;51758;52.218;5.172;2023-03-21T10:44:49;99084.81;;;11.15;100.00
65173;BME280;51758;52.218;5.172;2023-03-21T10:47:24;99098.97;;;11.26;100.00
65173;BME280;51758;52.218;5.172;2023-03-21T10:49:53;99114.28;;;11.34;100.00
65173;BME280;51758;52.218;5.172;2023-03-21T10:52:40;99135.50;;;11.14;100.00
65173;BME280;51758;52.218;5.172;2023-03-21T10:55:17;99148.94;;;11.41;100.00
65173;BME280;51758;52.218;5.172;2023-03-21T10:57:47;99179.34;;;11.24;100.00
65173;BME280;51758;52.218;5.172;2023-03-21T11:00:19;99185.78;;;11.39;100.00
65173;BME280;51758;52.218;5.172;2023-03-21T11:02:50;99200.78;;;11.56;100.00
65173;BME280;51758;52.218;5.172;2023-03-21T11:05:22;99218.66;;;11.29;100.00
65173;BME280;51758;52.218;5.172;2023-03-21T11:07:58;99267.44;;;11.17;100.00
65173;BME280;51758;52.218;5.172;2023-03-21T11:10:30;99286.47;;;11.05;100.00
65173;BME280;51758;52.218;5.172;2023-03-21T11:13:03;99307.78;;;11.02;100.00
65173;BME280;51758;52.218;5.172;2023-03-21T11:15:40;99313.16;;;11.07;100.00
65173;BME280;51758;52.218;5.172;2023-03-21T11:18:18;99307.94;;;11.07;100.00
65173;BME280;51758;52.218;5.172;2023-03-21T11:20:52;99305.72;;;11.41;100.00
65173;BME280;51758;52.218;5.172;2023-03-21T11:23:24;99313.88;;;11.33;100.00
65173;BME280;51758;52.218;5.172;2023-03-21T11:25:53;99320.25;;;11.37;100.00
65173;BME280;51758;52.218;5.172;2023-03-21T11:28:23;99298.50;;;11.55;100.00
65173;BME280;51758;52.218;5.172;2023-03-21T11:30:55;99317.19;;;11.58;100.00
65173;BME280;51758;52.218;5.172;2023-03-21T11:33:27;99321.38;;;11.59;100.00
65173;BME280;51758;52.218;5.172;2023-03-21T11:36:03;99320.63;;;11.70;100.00
65173;BME280;51758;52.218;5.172;2023-03-21T11:38:36;99320.44;;;11.54;100.00
65173;BME280;51758;52.218;5.172;2023-03-21T11:41:05;99314.50;;;11.65;100.00
65173;BME280;51758;52.218;5.172;2023-03-21T11:43:34;99311.06;;;11.94;100.00
65173;BME280;51758;52.218;5.172;2023-03-21T11:46:06;99323.78;;;11.91;100.00
65173;BME280;51758;52.218;5.172;2023-03-21T11:48:38;99338.94;;;11.89;100.00
65173;BME280;51758;52.218;5.172;2023-03-21T11:51:15;99360.28;;;11.86;100.00
65173;BME280;51758;52.218;5.172;2023-03-21T11:53:50;99377.13;;;11.90;100.00
65173;BME280;51758;52.218;5.172;2023-03-21T11:56:26;99389.03;;;11.67;100.00
65173;BME280;51758;52.218;5.172;2023-03-21T11:59:06;99393.63;;;11.54;100.00
65173;BME280;51758;52.218;5.172;2023-03-21T12:01:45;99410.84;;;11.61;100.00
65173;BME280;51758;52.218;5.172;2023-03-21T12:04:32;99405.84;;;11.60;100.00
65173;BME280;51758;52.218;5.172;2023-03-21T12:10:14;99396.91;;;11.86;100.00
65173;BME280;51758;52.218;5.172;2023-03-21T12:12:55;99400.75;;;11.83;100.00
65173;BME280;51758;52.218;5.172;2023-03-21T12:15:32;99404.16;;;11.83;100.00
65173;BME280;51758;52.218;5.172;2023-03-21T12:18:13;99422.06;;;11.98;100.00
65173;BME280;51758;52.218;5.172;2023-03-21T12:20:48;99443.44;;;11.95;100.00
65173;BME280;51758;52.218;5.172;2023-03-21T12:23:41;99454.25;;;11.99;100.00
65173;BME280;51758;52.218;5.172;2023-03-21T12:26:20;99458.84;;;11.85;100.00
65173;BME280;51758;52.218;5.172;2023-03-21T12:29:02;99453.38;;;12.35;100.00
65173;BME280;51758;52.218;5.172;2023-03-21T12:31:43;99480.00;;;12.32;100.00
65173;BME280;51758;52.218;5.172;2023-03-21T12:34:27;99496.97;;;12.71;100.00
65173;BME280;51758;52.218;5.172;2023-03-21T12:37:06;99516.09;;;12.71;100.00
65173;BME280;51758;52.218;5.172;2023-03-21T12:39:39;99570.75;;;12.79;100.00
65173;BME280;51758;52.218;5.172;2023-03-21T12:42:20;99633.97;;;12.35;100.00
65173;BME280;51758;52.218;5.172;2023-03-21T12:44:55;99616.19;;;12.73;100.00
65173;BME280;51758;52.218;5.172;2023-03-21T12:47:29;99647.22;;;12.40;100.00
65173;BME280;51758;52.218;5.172;2023-03-21T12:50:01;99644.34;;;12.60;100.00
65173;BME280;51758;52.218;5.172;2023-03-21T12:52:32;99634.38;;;12.98;100.00
65173;BME280;51758;52.218;5.172;2023-03-21T12:55:08;99649.63;;;13.96;100.00
65173;BME280;51758;52.218;5.172;2023-03-21T12:57:46;99726.53;;;14.31;100.00
65173;BME280;51758;52.218;5.172;2023-03-21T13:00:26;99743.47;;;14.99;100.00
65173;BME280;51758;52.218;5.172;2023-03-21T13:02:57;99775.06;;;16.18;100.00
65173;BME280;51758;52.218;5.172;2023-03-21T13:05:28;99890.69;;;15.51;100.00
65173;BME280;51758;52.218;5.172;2023-03-21T13:08:04;99900.13;;;15.23;100.00
65173;BME280;51758;52.218;5.172;2023-03-21T13:10:33;99904.56;;;14.11;100.00
65173;BME280;51758;52.218;5.172;2023-03-21T13:13:09;99858.78;;;14.07;100.00
65173;BME280;51758;52.218;5.172;2023-03-21T13:15:52;99821.50;;;13.75;100.00
65173;BME280;51758;52.218;5.172;2023-03-21T13:18:30;99811.09;;;13.39;100.00
65173;BME280;51758;52.218;5.172;2023-03-21T13:21:01;99804.72;;;13.16;100.00
65173;BME280;51758;52.218;5.172;2023-03-21T13:23:37;99790.00;;;13.15;100.00
65173;BME280;51758;52.218;5.172;2023-03-21T13:26:07;99764.78;;;12.96;100.00
65173;BME280;51758;52.218;5.172;2023-03-21T13:28:39;99751.41;;;13.04;100.00
65173;BME280;51758;52.218;5.172;2023-03-21T13:31:16;99728.94;;;12.78;100.00